createdAt,value
2022-11-20T00:01:35.667Z,96824.19
2022-11-20T00:11:37.975Z,96811.72
2022-11-20T00:21:40.417Z,96820.28
2022-11-20T00:31:42.604Z,96817.66
2022-11-20T00:41:44.766Z,96812.44
2022-11-20T00:51:47.051Z,96819.84
2022-11-20T01:01:49.271Z,96812.44
2022-11-20T01:11:51.513Z,96827.56
2022-11-20T01:21:55.240Z,96834.31
2022-11-20T01:31:57.427Z,96828.91
2022-11-20T01:42:18.118Z,96816.25
2022-11-20T01:52:32.791Z,96809.97
2022-11-20T02:02:36.348Z,96797.28
2022-11-20T02:12:56.834Z,96795.34
2022-11-20T02:23:20.921Z,96796.97
2022-11-20T02:33:23.095Z,96802.56
2022-11-20T02:43:25.252Z,96812.94
2022-11-20T02:53:27.412Z,96800.44
2022-11-20T03:03:29.554Z,96786.44
2022-11-20T03:13:31.810Z,96787.41
2022-11-20T03:23:34.732Z,96786.94
2022-11-20T03:33:37.264Z,96790.38
2022-11-20T03:43:39.835Z,96794.78
2022-11-20T03:53:43.909Z,96793.78
2022-11-20T04:03:46.469Z,96791.81
2022-11-20T04:13:57.561Z,96799.06
2022-11-20T04:23:59.863Z,96802.03
2022-11-20T04:34:04.157Z,96797.22
2022-11-20T04:44:07.168Z,96787.84
2022-11-20T04:54:10.573Z,96782.38
2022-11-20T05:04:12.733Z,96783.56
2022-11-20T05:14:14.903Z,96782.56
2022-11-20T05:24:17.126Z,96776.78
2022-11-20T05:34:19.279Z,96772.47
2022-11-20T05:44:21.453Z,96771.00
2022-11-20T05:54:23.630Z,96753.41
2022-11-20T06:04:26.011Z,96744.22
2022-11-20T06:14:28.211Z,96739.47
2022-11-20T06:24:30.424Z,96739.47
2022-11-20T06:34:32.563Z,96738.03
2022-11-20T06:44:34.740Z,96736.59
2022-11-20T06:54:36.885Z,96733.50
2022-11-20T07:04:40.341Z,96723.28
2022-11-20T07:14:42.542Z,96719.69
2022-11-20T07:24:46.265Z,96714.41
2022-11-20T07:34:48.695Z,96710.97
2022-11-20T07:44:50.855Z,96704.97
2022-11-20T07:54:52.998Z,96691.09
2022-11-20T08:04:55.156Z,96691.25
2022-11-20T08:15:00.002Z,96683.88
2022-11-20T08:25:02.576Z,96677.63
2022-11-20T08:35:05.451Z,96660.38
2022-11-20T08:45:08.054Z,96670.09
2022-11-20T08:55:11.074Z,96671.66
2022-11-20T09:05:13.404Z,96664.06
2022-11-20T09:15:15.699Z,96662.91
2022-11-20T09:25:18.095Z,96663.97
2022-11-20T09:35:20.251Z,96646.97
2022-11-20T09:45:52.102Z,96637.94
2022-11-20T09:55:56.349Z,96625.00
2022-11-20T10:06:01.765Z,96610.16
2022-11-20T10:16:06.805Z,96599.53
2022-11-20T10:26:24.287Z,96585.56
2022-11-20T10:36:35.565Z,96559.66
2022-11-20T10:46:45.160Z,96557.09
2022-11-20T10:56:51.415Z,96560.28
2022-11-20T11:06:59.949Z,96552.94
2022-11-20T11:17:02.171Z,96554.19
2022-11-20T11:27:16.777Z,96541.88
2022-11-20T11:37:25.191Z,96540.84
2022-11-20T11:47:32.537Z,96535.13
2022-11-20T11:57:52.133Z,96528.44
2022-11-20T12:08:12.341Z,96505.28
2022-11-20T12:18:21.290Z,96497.94
2022-11-20T12:28:37.638Z,96483.06
2022-11-20T12:38:57.918Z,96476.38
2022-11-20T12:49:20.632Z,96474.25
2022-11-20T12:59:35.078Z,96463.84
2022-11-20T13:09:46.162Z,96459.44
2022-11-20T13:19:55.127Z,96457.97
2022-11-20T13:30:19.520Z,96427.72
2022-11-20T13:40:24.099Z,96419.72
2022-11-20T13:50:48.365Z,96409.34
2022-11-20T14:00:59.482Z,96427.53
2022-11-20T14:11:05.925Z,96436.44
2022-11-20T14:21:10.475Z,96440.41
2022-11-20T14:31:23.832Z,96443.41
2022-11-20T14:41:26.127Z,96457.38
2022-11-20T14:51:42.565Z,96449.03
2022-11-20T15:01:58.127Z,96435.16
2022-11-20T15:12:03.582Z,96428.59
2022-11-20T15:22:14.332Z,96431.47
2022-11-20T15:32:16.495Z,96439.88
2022-11-20T15:42:18.777Z,96426.56
2022-11-20T15:52:21.052Z,96434.66
2022-11-20T16:02:23.229Z,96429.47
2022-11-20T16:12:44.065Z,96413.59
2022-11-20T16:22:46.589Z,96418.59
2022-11-20T16:32:49.641Z,96409.22
2022-11-20T16:42:52.096Z,96412.50
2022-11-20T16:52:54.320Z,96429.00
2022-11-20T17:02:56.496Z,96423.09
2022-11-20T17:12:58.811Z,96426.34
2022-11-20T17:23:01.075Z,96432.69
2022-11-20T17:33:03.298Z,96428.19
2022-11-20T17:43:05.635Z,96430.56
2022-11-20T17:53:07.865Z,96423.31
2022-11-20T18:03:10.092Z,96437.88
2022-11-20T18:13:12.279Z,96424.34
2022-11-20T18:23:14.502Z,96400.88
2022-11-20T18:33:17.418Z,96419.59
2022-11-20T18:43:38.026Z,96410.03
2022-11-20T18:53:45.823Z,96409.66
2022-11-20T19:03:49.591Z,96419.75
2022-11-20T19:13:52.447Z,96427.94
2022-11-20T19:23:56.631Z,96428.94
2022-11-20T19:34:03.986Z,96426.06
2022-11-20T19:44:09.805Z,96410.81
2022-11-20T19:54:12.581Z,96429.16
2022-11-20T20:04:14.882Z,96414.31
2022-11-20T20:14:18.389Z,96416.00
2022-11-20T20:24:20.652Z,96422.38
2022-11-20T20:34:23.564Z,96431.78
2022-11-20T20:44:44.526Z,96426.47
2022-11-20T20:54:46.722Z,96415.13
2022-11-20T21:04:49.546Z,96402.06
2022-11-20T21:14:51.694Z,96397.16
2022-11-20T21:24:53.939Z,96386.78
2022-11-20T21:40:10.739Z,96387.94
2022-11-20T21:50:12.982Z,96367.91
2022-11-20T22:00:15.281Z,96364.34
2022-11-20T22:10:18.849Z,96365.25
2022-11-20T22:20:21.112Z,96365.41
2022-11-20T22:30:23.316Z,96351.28
2022-11-20T22:40:25.510Z,96341.50
2022-11-20T22:50:27.706Z,96334.41
2022-11-20T23:00:30.027Z,96320.63
2022-11-20T23:10:32.215Z,96293.44
2022-11-20T23:20:37.392Z,96281.47
2022-11-20T23:30:39.616Z,96272.50
2022-11-20T23:40:41.863Z,96247.72
2022-11-20T23:50:45.098Z,96238.50
